Time;durP1;ratioP1;P1;durP2;ratioP2;P2;SDS_P1;SDS_P2;PMS_P1;PMS_P2;Temp;Humidity;BMP_temperature;BMP_pressure;BME280_temperature;BME280_humidity;BME280_pressure;Samples;Min_cycle;Max_cycle;Signal;HPM_P1;HPM_P2
2022/07/17 00:00:44;;;;;;;5.10;2.30;;;11.90;99.90;;;;;;4944463;28;20047;-89
2022/07/17 00:03:15;;;;;;;6.35;2.50;;;11.90;99.90;;;;;;4933203;29;20047;-89
2022/07/17 00:05:41;;;;;;;7.25;2.60;;;11.80;99.90;;;;;;4948215;28;20126;-88
2022/07/17 00:08:07;;;;;;;7.20;2.50;;;11.70;99.90;;;;;;4949167;28;20070;-88
2022/07/17 00:10:38;;;;;;;7.25;2.60;;;11.70;99.90;;;;;;4959840;28;20046;-89
2022/07/17 00:13:05;;;;;;;6.78;2.20;;;11.70;99.90;;;;;;4947018;28;20051;-89
2022/07/17 00:15:31;;;;;;;5.15;2.22;;;11.70;99.90;;;;;;4931995;29;20059;-88
2022/07/17 00:17:56;;;;;;;7.88;2.50;;;11.70;99.90;;;;;;4940549;29;20059;-89
2022/07/17 00:20:24;;;;;;;5.60;2.38;;;11.60;99.90;;;;;;4947087;28;20576;-89
2022/07/17 00:22:51;;;;;;;9.15;2.75;;;11.60;99.90;;;;;;4931753;29;20126;-89
2022/07/17 00:25:16;;;;;;;7.88;3.20;;;11.60;99.90;;;;;;4938663;28;20055;-88
2022/07/17 00:27:42;;;;;;;6.13;2.53;;;11.60;99.90;;;;;;4966137;28;20380;-88
2022/07/17 00:30:09;;;;;;;7.55;2.70;;;11.60;99.90;;;;;;4950128;28;20122;-88
2022/07/17 00:32:35;;;;;;;5.38;2.33;;;11.60;99.90;;;;;;4959163;28;20043;-89
2022/07/17 00:35:01;;;;;;;6.07;2.80;;;11.60;99.90;;;;;;4940441;29;20057;-89
2022/07/17 00:37:26;;;;;;;7.68;2.88;;;11.50;99.90;;;;;;4950362;29;20373;-88
2022/07/17 00:39:52;;;;;;;8.60;3.25;;;11.40;99.90;;;;;;4948205;28;20044;-89
2022/07/17 00:42:18;;;;;;;8.07;2.90;;;11.40;99.90;;;;;;4933904;29;20075;-89
2022/07/17 00:44:44;;;;;;;6.32;2.72;;;11.30;99.90;;;;;;4933456;29;20456;-88
2022/07/17 00:47:12;;;;;;;7.22;2.90;;;11.40;99.90;;;;;;4940952;28;20047;-88
2022/07/17 00:49:39;;;;;;;7.05;2.65;;;11.40;99.90;;;;;;4936216;29;20039;-88
2022/07/17 00:52:05;;;;;;;6.88;3.00;;;11.40;99.90;;;;;;4951932;29;20415;-88
2022/07/17 00:54:31;;;;;;;8.77;3.42;;;11.30;99.90;;;;;;4957949;28;20039;-89
2022/07/17 00:56:59;;;;;;;7.95;3.10;;;11.30;99.90;;;;;;4954869;29;20107;-89
2022/07/17 00:59:26;;;;;;;7.68;3.45;;;11.30;99.90;;;;;;4943223;29;20052;-89
2022/07/17 01:01:52;;;;;;;7.80;3.13;;;11.30;99.90;;;;;;4950144;28;20087;-88
2022/07/17 01:04:17;;;;;;;6.68;2.88;;;11.20;99.90;;;;;;4931936;29;20056;-89
2022/07/17 01:06:43;;;;;;;6.55;3.20;;;11.30;99.90;;;;;;4929953;29;20046;-89
2022/07/17 01:09:11;;;;;;;6.57;3.10;;;11.20;99.90;;;;;;4936311;28;20040;-88
2022/07/17 01:11:37;;;;;;;8.50;3.40;;;11.20;99.90;;;;;;4947874;28;20071;-88
2022/07/17 01:14:03;;;;;;;8.20;3.60;;;11.10;99.90;;;;;;4929986;28;20139;-88
2022/07/17 01:16:29;;;;;;;6.40;3.10;;;11.10;99.90;;;;;;4949347;28;20051;-88
2022/07/17 01:18:56;;;;;;;8.10;3.30;;;11.10;99.90;;;;;;4950303;28;20089;-89
2022/07/17 01:21:22;;;;;;;8.82;3.42;;;11.10;99.90;;;;;;4935246;29;20058;-88
2022/07/17 01:23:48;;;;;;;7.32;3.38;;;11.10;99.90;;;;;;4950759;28;20051;-88
2022/07/17 01:26:13;;;;;;;8.80;3.42;;;11.00;99.90;;;;;;4951476;29;20055;-89
2022/07/17 01:28:39;;;;;;;7.65;3.17;;;11.00;99.90;;;;;;4943740;28;20047;-88
2022/07/17 01:31:04;;;;;;;7.93;3.28;;;11.00;99.90;;;;;;4933629;29;20433;-88
2022/07/17 01:33:30;;;;;;;7.38;3.35;;;10.90;99.90;;;;;;4935800;28;20050;-87
2022/07/17 01:35:56;;;;;;;7.70;3.75;;;11.00;99.90;;;;;;4951261;29;20039;-88
2022/07/17 01:38:21;;;;;;;7.35;3.15;;;10.90;99.90;;;;;;4951652;28;20053;-88
2022/07/17 01:40:47;;;;;;;6.78;3.55;;;10.90;99.90;;;;;;4946132;28;20038;-88
2022/07/17 01:43:13;;;;;;;7.00;3.45;;;10.90;99.90;;;;;;4934713;29;20047;-89
2022/07/17 01:45:39;;;;;;;6.47;3.58;;;10.80;99.90;;;;;;4941206;29;20465;-88
2022/07/17 01:48:05;;;;;;;8.10;3.90;;;10.80;99.90;;;;;;4952154;28;20051;-89
2022/07/17 01:50:31;;;;;;;7.50;3.92;;;10.70;99.90;;;;;;4961752;28;20044;-87
2022/07/17 01:52:56;;;;;;;6.78;3.60;;;10.80;99.90;;;;;;4951610;28;20047;-88
2022/07/17 01:55:22;;;;;;;7.57;3.80;;;10.80;99.90;;;;;;4952446;28;20374;-88
2022/07/17 01:57:47;;;;;;;8.63;3.63;;;10.80;99.90;;;;;;4952181;29;20106;-88
2022/07/17 02:00:16;;;;;;;8.73;3.85;;;10.70;99.90;;;;;;4952499;28;20118;-88
2022/07/17 02:02:43;;;;;;;8.88;4.35;;;10.70;99.90;;;;;;4949601;28;20054;-90
2022/07/17 02:05:08;;;;;;;9.15;3.70;;;10.70;99.90;;;;;;4947360;28;20074;-88
2022/07/17 02:07:36;;;;;;;7.40;3.75;;;10.60;99.90;;;;;;4952255;28;20538;-88
2022/07/17 02:10:02;;;;;;;7.50;3.67;;;10.60;99.90;;;;;;4951739;29;20090;-88
2022/07/17 02:12:28;;;;;;;7.38;3.83;;;10.60;99.90;;;;;;4934992;29;20082;-88
2022/07/17 02:14:53;;;;;;;7.55;3.47;;;10.60;99.90;;;;;;4967921;28;20043;-88
2022/07/17 02:17:19;;;;;;;6.50;3.40;;;10.60;99.90;;;;;;4945140;28;20036;-88
2022/07/17 02:19:45;;;;;;;8.35;3.35;;;10.60;99.90;;;;;;4939964;28;20445;-88
2022/07/17 02:22:10;;;;;;;8.00;3.95;;;10.60;99.90;;;;;;4951161;28;20118;-87
2022/07/17 02:24:36;;;;;;;7.78;3.70;;;10.60;99.90;;;;;;4951970;28;20132;-88
2022/07/17 02:27:01;;;;;;;9.40;4.35;;;10.60;99.90;;;;;;4950851;29;20047;-87
2022/07/17 02:29:27;;;;;;;8.93;3.58;;;10.50;99.90;;;;;;4950100;28;20514;-89
2022/07/17 02:31:52;;;;;;;6.45;3.53;;;10.50;99.90;;;;;;4938185;29;20421;-89
2022/07/17 02:34:18;;;;;;;7.68;4.20;;;10.60;99.90;;;;;;4948302;28;20138;-88
2022/07/17 02:36:43;;;;;;;7.13;3.28;;;10.60;99.90;;;;;;4951872;29;20039;-88
2022/07/17 02:39:09;;;;;;;6.40;3.65;;;10.50;99.90;;;;;;4943489;28;20423;-88
2022/07/17 02:41:35;;;;;;;8.40;3.47;;;10.40;99.90;;;;;;4939344;28;20102;-88
2022/07/17 02:44:00;;;;;;;7.53;3.95;;;10.50;99.90;;;;;;4934245;29;20048;-87
2022/07/17 02:46:26;;;;;;;7.57;3.67;;;10.50;99.90;;;;;;4951182;28;20047;-89
2022/07/17 02:48:51;;;;;;;10.10;4.15;;;10.40;99.90;;;;;;4950635;29;20488;-88
2022/07/17 02:51:17;;;;;;;8.85;3.65;;;10.40;99.90;;;;;;4952536;28;20472;-89
2022/07/17 02:53:42;;;;;;;6.82;3.58;;;10.40;99.90;;;;;;4952262;28;20099;-88
2022/07/17 02:56:08;;;;;;;7.45;3.42;;;10.30;99.90;;;;;;4950619;29;20050;-88
2022/07/17 02:58:33;;;;;;;7.10;3.30;;;10.30;99.90;;;;;;4949806;28;20050;-87
2022/07/17 03:00:59;;;;;;;8.23;3.53;;;10.20;99.90;;;;;;4949930;29;20039;-88
2022/07/17 03:03:25;;;;;;;6.90;3.40;;;10.20;99.90;;;;;;4951848;28;20401;-87
2022/07/17 03:05:50;;;;;;;7.40;3.42;;;10.10;99.90;;;;;;4933901;28;20091;-87
2022/07/17 03:08:16;;;;;;;8.07;3.83;;;10.10;99.90;;;;;;4951588;29;20051;-88
2022/07/17 03:10:42;;;;;;;7.32;3.60;;;10.10;99.90;;;;;;4949678;28;20047;-88
2022/07/17 03:13:07;;;;;;;7.35;3.22;;;10.10;99.90;;;;;;4952283;28;20051;-87
2022/07/17 03:15:33;;;;;;;7.40;3.35;;;10.10;99.90;;;;;;4952682;28;20047;-88
2022/07/17 03:17:58;;;;;;;7.53;3.92;;;10.00;99.90;;;;;;4932085;29;20104;-88
2022/07/17 03:20:24;;;;;;;8.85;3.47;;;10.00;99.90;;;;;;4948729;28;20560;-88
2022/07/17 03:22:50;;;;;;;6.88;3.42;;;9.90;99.90;;;;;;4944575;28;20057;-88
2022/07/17 03:25:16;;;;;;;8.02;3.70;;;9.90;99.90;;;;;;4958051;28;20535;-87
2022/07/17 03:27:41;;;;;;;7.95;3.70;;;9.90;99.90;;;;;;4941668;28;20044;-88
2022/07/17 03:30:07;;;;;;;8.30;3.60;;;10.00;99.90;;;;;;4931280;29;20061;-87
2022/07/17 03:32:33;;;;;;;8.30;3.67;;;10.00;99.90;;;;;;4942899;29;20047;-88
2022/07/17 03:35:00;;;;;;;7.82;3.63;;;9.90;99.90;;;;;;4950134;28;20435;-88
2022/07/17 03:37:27;;;;;;;7.47;3.50;;;10.00;99.90;;;;;;4964623;28;20047;-88
2022/07/17 03:39:52;;;;;;;7.18;3.47;;;10.00;99.90;;;;;;4966415;28;20078;-88
2022/07/17 03:42:18;;;;;;;8.10;3.22;;;9.90;99.90;;;;;;4951022;29;20500;-88
2022/07/17 03:44:44;;;;;;;6.50;3.28;;;10.00;99.90;;;;;;4951347;28;20043;-88
2022/07/17 03:47:09;;;;;;;6.50;3.20;;;9.90;99.90;;;;;;4948944;28;20449;-87
2022/07/17 03:49:35;;;;;;;8.02;3.47;;;9.90;99.90;;;;;;4950256;28;20106;-89
2022/07/17 03:52:01;;;;;;;8.13;3.75;;;9.90;99.90;;;;;;4931908;29;20052;-87
2022/07/17 03:54:26;;;;;;;7.97;3.35;;;9.80;99.90;;;;;;4935145;28;20055;-88
2022/07/17 03:56:52;;;;;;;8.07;3.45;;;9.80;99.90;;;;;;4949893;29;20051;-88
2022/07/17 03:59:17;;;;;;;7.55;3.30;;;9.80;99.90;;;;;;4951420;28;20050;-89
2022/07/17 04:01:43;;;;;;;8.15;3.47;;;9.80;99.90;;;;;;4949971;29;20039;-90
2022/07/17 04:04:08;;;;;;;6.93;3.75;;;9.90;99.90;;;;;;4948655;28;20089;-88
2022/07/17 04:06:34;;;;;;;8.68;4.05;;;9.90;99.90;;;;;;4946729;29;20131;-88
2022/07/17 04:08:59;;;;;;;7.38;4.03;;;9.90;99.90;;;;;;4950562;28;20497;-89
2022/07/17 04:11:25;;;;;;;8.60;4.15;;;9.90;99.90;;;;;;4950458;29;20066;-89
2022/07/17 04:13:51;;;;;;;10.07;4.20;;;10.00;99.90;;;;;;4950614;28;20047;-88
2022/07/17 04:16:16;;;;;;;7.00;3.80;;;10.00;99.90;;;;;;4949413;28;20130;-89
2022/07/17 04:18:42;;;;;;;7.25;3.88;;;10.00;99.90;;;;;;4937444;29;20099;-89
2022/07/17 04:21:09;;;;;;;7.45;3.60;;;10.10;99.90;;;;;;4932116;29;20381;-88
2022/07/17 04:23:35;;;;;;;7.70;3.85;;;10.10;99.90;;;;;;4947898;28;20066;-90
2022/07/17 04:26:02;;;;;;;8.15;3.53;;;10.20;99.90;;;;;;4950241;28;20047;-89
2022/07/17 04:28:28;;;;;;;7.25;3.75;;;10.20;99.90;;;;;;4951753;28;20047;-89
2022/07/17 04:30:53;;;;;;;7.47;4.20;;;10.20;99.90;;;;;;4948553;28;20054;-88
2022/07/17 04:33:19;;;;;;;7.78;4.03;;;10.30;99.90;;;;;;4942622;29;20472;-90
2022/07/17 04:35:44;;;;;;;9.18;4.00;;;10.30;99.90;;;;;;4951446;28;20604;-89
2022/07/17 04:38:10;;;;;;;8.25;4.05;;;10.30;99.90;;;;;;4951251;28;20441;-89
2022/07/17 04:40:38;;;;;;;8.10;4.15;;;10.40;99.90;;;;;;4949997;28;20075;-89
2022/07/17 04:43:04;;;;;;;9.13;4.10;;;10.50;99.90;;;;;;4949276;28;20047;-88
2022/07/17 04:45:30;;;;;;;9.05;4.20;;;10.50;99.90;;;;;;4945978;28;20484;-89
2022/07/17 04:47:55;;;;;;;7.88;4.32;;;10.60;99.90;;;;;;4930386;29;20051;-89
2022/07/17 04:50:21;;;;;;;8.05;4.03;;;10.60;99.90;;;;;;4955757;28;20051;-90
2022/07/17 04:52:47;;;;;;;8.52;4.03;;;10.70;99.90;;;;;;4949415;29;20086;-90
2022/07/17 04:55:13;;;;;;;8.52;4.50;;;10.80;99.90;;;;;;4933527;29;20047;-88
2022/07/17 04:57:39;;;;;;;8.77;4.50;;;10.90;99.90;;;;;;4937008;29;20091;-89
2022/07/17 05:00:06;;;;;;;9.15;4.43;;;10.90;99.90;;;;;;4961571;28;20540;-88
2022/07/17 05:02:32;;;;;;;8.75;4.38;;;11.00;99.90;;;;;;4970476;28;20089;-90
2022/07/17 05:04:57;;;;;;;7.18;4.25;;;11.10;99.90;;;;;;4969405;28;20086;-88
2022/07/17 05:07:23;;;;;;;8.48;4.07;;;11.20;99.90;;;;;;4970425;28;20062;-89
2022/07/17 05:09:49;;;;;;;7.72;4.15;;;11.30;99.90;;;;;;4951620;28;20046;-88
2022/07/17 05:12:15;;;;;;;9.82;4.13;;;11.30;99.90;;;;;;4948860;28;20040;-90
2022/07/17 05:14:40;;;;;;;8.75;4.03;;;11.40;99.90;;;;;;4947130;29;20042;-93
2022/07/17 05:17:06;;;;;;;8.10;3.78;;;11.50;99.90;;;;;;4962563;28;20035;-89
2022/07/17 05:19:31;;;;;;;7.78;3.85;;;11.60;99.90;;;;;;4955220;28;20046;-88
2022/07/17 05:21:57;;;;;;;7.57;3.90;;;11.70;99.90;;;;;;4935694;29;20500;-87
2022/07/17 05:24:22;;;;;;;7.75;3.78;;;11.70;99.90;;;;;;4945951;29;20086;-89
2022/07/17 05:26:48;;;;;;;8.55;3.67;;;11.80;99.90;;;;;;4969098;28;20035;-90
2022/07/17 05:29:14;;;;;;;7.85;4.15;;;11.80;99.90;;;;;;4951971;29;20125;-89
2022/07/17 05:31:39;;;;;;;7.95;3.63;;;11.90;99.90;;;;;;4954762;28;20043;-87
2022/07/17 05:34:05;;;;;;;6.05;3.25;;;12.00;99.90;;;;;;4953806;29;20160;-88
2022/07/17 05:36:30;;;;;;;8.65;3.53;;;12.00;99.90;;;;;;4966507;28;20043;-89
2022/07/17 05:38:56;;;;;;;7.82;3.65;;;12.00;99.90;;;;;;4936564;29;20515;-89
2022/07/17 05:41:21;;;;;;;7.13;3.35;;;12.10;99.90;;;;;;4951163;28;20038;-90
2022/07/17 05:43:47;;;;;;;8.00;3.67;;;12.10;99.90;;;;;;4950312;28;20114;-89
2022/07/17 05:46:13;;;;;;;7.70;3.25;;;12.20;99.90;;;;;;4930849;29;20040;-88
2022/07/17 05:48:38;;;;;;;8.55;3.80;;;12.20;99.90;;;;;;4935845;29;20489;-90
2022/07/17 05:51:04;;;;;;;8.65;3.75;;;12.20;99.90;;;;;;4939549;29;20203;-90
2022/07/17 05:53:29;;;;;;;10.90;4.05;;;12.30;99.90;;;;;;4935834;29;20054;-90
2022/07/17 05:55:55;;;;;;;7.28;3.60;;;12.40;99.90;;;;;;4934835;29;20035;-88
2022/07/17 05:58:21;;;;;;;8.57;3.53;;;12.40;99.90;;;;;;4948880;28;20065;-89
2022/07/17 06:00:48;;;;;;;6.90;3.30;;;12.50;99.90;;;;;;4951682;29;20046;-89
2022/07/17 06:03:14;;;;;;;7.68;3.40;;;12.70;99.90;;;;;;4952271;29;20117;-90
2022/07/17 06:05:40;;;;;;;7.40;3.25;;;12.70;99.90;;;;;;4949549;28;20039;-90
2022/07/17 06:08:06;;;;;;;6.32;3.22;;;12.90;99.90;;;;;;4933039;29;20056;-89
2022/07/17 06:10:32;;;;;;;8.77;3.40;;;12.90;99.90;;;;;;4934522;29;20052;-91
2022/07/17 06:12:58;;;;;;;8.75;3.38;;;13.10;99.90;;;;;;4945156;29;20039;-90
2022/07/17 06:15:24;;;;;;;7.15;3.17;;;13.10;99.90;;;;;;4951317;28;20500;-90
2022/07/17 06:17:50;;;;;;;8.25;3.47;;;13.10;99.90;;;;;;4949010;29;20159;-90
2022/07/17 06:20:17;;;;;;;8.10;3.20;;;13.20;99.90;;;;;;4935543;29;20059;-88
2022/07/17 06:22:44;;;;;;;7.45;3.08;;;13.30;99.90;;;;;;4936214;29;20045;-89
2022/07/17 06:25:10;;;;;;;7.32;2.75;;;13.40;99.90;;;;;;4934440;29;20047;-89
2022/07/17 06:27:39;;;;;;;8.70;3.67;;;13.60;99.90;;;;;;4947641;28;20047;-91
2022/07/17 06:30:05;;;;;;;8.07;2.80;;;13.70;99.90;;;;;;4970984;28;20047;-89
2022/07/17 06:32:31;;;;;;;8.68;2.60;;;13.80;99.90;;;;;;4949602;28;20050;-91
2022/07/17 06:34:56;;;;;;;7.70;2.50;;;14.00;99.90;;;;;;4932786;29;20044;-89
2022/07/17 06:37:22;;;;;;;7.60;2.53;;;14.10;99.90;;;;;;4933154;29;20079;-90
2022/07/17 06:39:48;;;;;;;7.28;2.08;;;14.20;99.90;;;;;;4943307;29;20071;-90
2022/07/17 06:42:13;;;;;;;7.25;2.20;;;14.40;99.90;;;;;;4958364;28;20046;-89
2022/07/17 06:44:39;;;;;;;8.85;2.40;;;14.50;99.90;;;;;;4947197;29;20131;-89
2022/07/17 06:47:04;;;;;;;5.93;1.88;;;14.60;99.90;;;;;;4948129;28;20047;-88
2022/07/17 06:49:30;;;;;;;6.22;1.50;;;14.70;99.90;;;;;;4946625;28;20043;-89
2022/07/17 06:51:56;;;;;;;5.53;1.60;;;14.90;99.90;;;;;;4963777;28;20051;-89
2022/07/17 06:54:25;;;;;;;4.88;1.20;;;15.00;99.90;;;;;;4966157;28;20137;-92
2022/07/17 06:56:52;;;;;;;5.70;1.40;;;15.10;99.90;;;;;;4943427;28;20043;-91
2022/07/17 06:59:17;;;;;;;6.57;1.63;;;15.30;99.90;;;;;;4938910;28;20058;-91
2022/07/17 07:01:43;;;;;;;10.40;1.75;;;15.40;99.90;;;;;;4944866;28;20047;-90
2022/07/17 07:04:08;;;;;;;7.00;1.33;;;15.60;99.90;;;;;;4949686;28;20131;-90
2022/07/17 07:06:34;;;;;;;7.97;1.30;;;15.60;99.90;;;;;;4950458;28;21927;-91
2022/07/17 07:08:59;;;;;;;7.25;1.83;;;15.70;99.90;;;;;;4949360;28;20412;-89
2022/07/17 07:11:25;;;;;;;5.38;1.40;;;15.70;99.90;;;;;;4951195;29;20515;-89
2022/07/17 07:13:51;;;;;;;6.30;1.60;;;15.80;99.90;;;;;;4949077;28;20055;-90
2022/07/17 07:16:16;;;;;;;4.07;1.10;;;15.90;99.90;;;;;;4966007;28;20035;-89
2022/07/17 07:18:42;;;;;;;5.88;1.40;;;16.00;99.90;;;;;;4950278;28;20039;-88
2022/07/17 07:21:07;;;;;;;5.63;1.35;;;16.20;99.90;;;;;;4950474;28;20051;-88
2022/07/17 07:23:33;;;;;;;5.55;1.70;;;16.40;99.90;;;;;;4938765;28;20055;-88
2022/07/17 07:25:59;;;;;;;7.60;1.58;;;16.50;99.90;;;;;;4962940;28;20040;-88
2022/07/17 07:28:24;;;;;;;6.32;1.52;;;16.60;99.90;;;;;;4957709;28;20149;-89
2022/07/17 07:30:50;;;;;;;6.90;1.55;;;16.70;99.90;;;;;;4951816;28;20043;-88
2022/07/17 07:33:16;;;;;;;6.63;1.40;;;16.80;99.90;;;;;;4954686;28;20047;-87
2022/07/17 07:35:42;;;;;;;4.47;1.30;;;17.00;99.90;;;;;;4946917;28;20058;-87
2022/07/17 07:38:08;;;;;;;6.57;1.48;;;17.10;99.90;;;;;;4944209;28;20075;-87
2022/07/17 07:40:34;;;;;;;6.07;1.40;;;17.10;99.90;;;;;;4944645;28;20093;-88
2022/07/17 07:42:59;;;;;;;6.50;1.55;;;17.20;99.90;;;;;;4946978;29;20039;-88
2022/07/17 07:45:25;;;;;;;7.00;1.80;;;17.10;99.90;;;;;;4925778;29;20051;-88
2022/07/17 07:47:51;;;;;;;6.60;1.55;;;17.20;99.90;;;;;;4946374;28;20492;-87
2022/07/17 07:50:18;;;;;;;6.90;1.40;;;17.30;99.90;;;;;;4940524;29;20039;-88
2022/07/17 07:52:44;;;;;;;5.72;1.58;;;17.40;99.90;;;;;;4943017;28;20167;-88
2022/07/17 07:55:11;;;;;;;6.32;1.60;;;17.50;99.90;;;;;;4940784;29;20052;-88
2022/07/17 07:57:37;;;;;;;5.18;1.40;;;17.40;99.90;;;;;;4949150;28;20153;-88
2022/07/17 08:00:04;;;;;;;6.13;1.85;;;17.50;99.90;;;;;;4931550;29;20137;-86
2022/07/17 08:02:30;;;;;;;7.40;1.50;;;17.40;99.90;;;;;;4934027;28;20047;-87
2022/07/17 08:04:55;;;;;;;7.22;1.67;;;17.40;99.90;;;;;;4952795;28;20519;-87
2022/07/17 08:07:21;;;;;;;7.38;1.52;;;17.40;99.90;;;;;;4944459;28;20047;-87
2022/07/17 08:09:48;;;;;;;5.43;1.55;;;17.30;99.90;;;;;;4942232;28;20040;-86
2022/07/17 08:12:13;;;;;;;5.95;1.48;;;17.20;99.90;;;;;;4965668;28;20044;-87
2022/07/17 08:14:39;;;;;;;7.07;1.60;;;17.30;99.90;;;;;;4943043;28;20043;-86
2022/07/17 08:17:05;;;;;;;9.57;1.67;;;17.30;99.90;;;;;;4939505;29;20480;-86
2022/07/17 08:19:30;;;;;;;5.88;1.77;;;17.40;99.90;;;;;;4947480;29;20412;-86
2022/07/17 08:21:56;;;;;;;5.40;1.48;;;17.40;99.90;;;;;;4959843;28;20130;-87
2022/07/17 08:24:21;;;;;;;5.75;1.58;;;17.50;99.90;;;;;;4963777;28;20245;-86
2022/07/17 08:26:47;;;;;;;6.68;1.58;;;17.60;99.90;;;;;;4946581;29;20448;-87
2022/07/17 08:29:12;;;;;;;6.72;1.50;;;17.60;99.90;;;;;;4965536;28;20116;-87
2022/07/17 08:31:38;;;;;;;6.88;1.50;;;17.60;99.90;;;;;;4949759;29;20415;-87
2022/07/17 08:34:04;;;;;;;9.15;1.50;;;17.70;99.90;;;;;;4962588;28;20463;-87
2022/07/17 08:36:29;;;;;;;6.18;1.38;;;17.70;99.90;;;;;;4930639;29;20489;-87
2022/07/17 08:38:55;;;;;;;6.32;1.60;;;17.70;99.90;;;;;;4945570;28;20513;-85
2022/07/17 08:41:22;;;;;;;6.95;1.45;;;17.70;99.90;;;;;;4950288;29;20086;-86
2022/07/17 08:43:48;;;;;;;7.70;1.40;;;17.80;99.90;;;;;;4949416;29;20082;-84
2022/07/17 08:46:16;;;;;;;5.72;1.35;;;17.80;99.90;;;;;;4948479;28;20491;-86
2022/07/17 08:48:44;;;;;;;6.15;1.45;;;17.80;99.90;;;;;;4931889;29;20044;-87
2022/07/17 08:51:11;;;;;;;8.45;1.48;;;17.80;99.90;;;;;;4945866;29;20043;-87
2022/07/17 08:53:37;;;;;;;5.57;1.50;;;17.80;99.90;;;;;;4950647;28;20051;-86
2022/07/17 08:56:03;;;;;;;5.82;1.30;;;17.80;99.90;;;;;;4950608;28;20059;-87
2022/07/17 08:58:29;;;;;;;7.47;1.90;;;17.70;99.90;;;;;;4950539;28;20051;-86
2022/07/17 09:00:55;;;;;;;5.10;1.30;;;17.80;99.90;;;;;;4947781;28;20047;-86
2022/07/17 09:03:23;;;;;;;4.72;1.30;;;17.90;99.90;;;;;;4937324;28;20047;-85
2022/07/17 09:05:49;;;;;;;7.18;1.50;;;18.00;99.90;;;;;;4945365;28;20059;-87
2022/07/17 09:08:24;;;;;;;4.88;1.40;;;18.10;99.90;;;;;;4946026;28;20205;-87
2022/07/17 09:10:52;;;;;;;5.90;1.63;;;18.20;99.90;;;;;;4946920;28;20047;-88
2022/07/17 09:13:21;;;;;;;7.55;1.77;;;18.30;99.90;;;;;;4946504;28;20058;-87
2022/07/17 09:15:48;;;;;;;4.28;1.10;;;18.30;99.90;;;;;;4961945;28;20043;-89
2022/07/17 09:18:15;;;;;;;6.50;1.48;;;18.40;99.90;;;;;;4949114;28;20031;-88
2022/07/17 09:20:57;;;;;;;5.70;1.30;;;18.50;99.90;;;;;;4945752;28;20058;-90
2022/07/17 09:23:25;;;;;;;5.68;1.20;;;18.50;99.90;;;;;;4942082;28;20052;-88
2022/07/17 09:25:56;;;;;;;6.45;1.60;;;18.50;99.90;;;;;;4941120;28;20047;-89
2022/07/17 09:28:23;;;;;;;5.72;1.40;;;18.60;99.90;;;;;;4930421;28;20081;-90
2022/07/17 09:30:55;;;;;;;4.97;1.40;;;18.60;99.90;;;;;;4943486;28;20053;-89
2022/07/17 09:33:33;;;;;;;5.63;1.50;;;18.60;99.90;;;;;;4939427;28;20055;-87
2022/07/17 09:36:12;;;;;;;5.97;1.73;;;18.60;99.90;;;;;;4947038;28;20043;-89
2022/07/17 09:38:42;;;;;;;6.95;1.30;;;18.70;99.90;;;;;;4948330;28;20133;-87
2022/07/17 09:41:17;;;;;;;5.22;1.60;;;18.70;99.90;;;;;;4946322;28;20074;-88
2022/07/17 09:43:50;;;;;;;4.97;1.38;;;18.80;99.90;;;;;;4949837;28;21579;-89
2022/07/17 09:46:17;;;;;;;4.80;1.75;;;18.80;99.90;;;;;;4949149;28;20135;-88
2022/07/17 09:48:47;;;;;;;5.55;1.67;;;18.90;99.90;;;;;;4931544;28;20058;-89
2022/07/17 09:51:18;;;;;;;4.18;1.20;;;18.90;99.90;;;;;;4950632;28;20073;-89
2022/07/17 09:53:49;;;;;;;5.43;1.38;;;19.00;99.90;;;;;;4950076;28;20056;-88
2022/07/17 09:56:17;;;;;;;5.63;1.23;;;19.00;99.90;;;;;;4948240;28;20047;-89
2022/07/17 09:58:47;;;;;;;5.43;1.27;;;19.10;99.90;;;;;;4936489;28;20105;-88
2022/07/17 10:01:15;;;;;;;4.72;1.52;;;19.10;99.90;;;;;;4952527;28;20103;-87
2022/07/17 10:03:42;;;;;;;6.07;1.45;;;19.10;99.90;;;;;;4944212;28;20051;-88
2022/07/17 10:06:10;;;;;;;5.97;1.52;;;19.10;99.90;;;;;;4963592;28;20047;-88
2022/07/17 10:08:37;;;;;;;6.78;1.60;;;19.10;99.90;;;;;;4959957;28;20054;-87
2022/07/17 10:11:07;;;;;;;7.55;1.58;;;19.10;99.90;;;;;;4937248;29;20078;-88
2022/07/17 10:13:35;;;;;;;6.13;1.42;;;19.20;99.90;;;;;;4944107;28;20122;-88
2022/07/17 10:16:00;;;;;;;5.97;1.55;;;19.20;99.90;;;;;;4942119;28;20177;-88
2022/07/17 10:18:35;;;;;;;5.75;1.40;;;19.30;99.90;;;;;;4946634;29;20122;-88
2022/07/17 10:21:14;;;;;;;4.88;1.60;;;19.30;99.90;;;;;;4944794;28;20066;-88
2022/07/17 10:24:08;;;;;;;5.63;1.50;;;19.40;99.90;;;;;;4959560;28;20047;-89
2022/07/17 10:26:49;;;;;;;5.20;1.50;;;19.40;99.90;;;;;;4963090;28;20054;-91
2022/07/17 10:29:26;;;;;;;;;;;19.40;99.90;;;;;;4948822;28;20050;-88
2022/07/17 10:31:52;;;;;;;6.20;1.80;;;19.40;99.90;;;;;;4951402;28;20009;-91
2022/07/17 10:34:21;;;;;;;4.90;1.67;;;19.50;99.90;;;;;;4957739;28;20133;-89
2022/07/17 10:36:47;;;;;;;8.90;2.22;;;19.60;99.90;;;;;;4964629;28;20082;-85
2022/07/17 10:39:20;;;;;;;5.60;1.70;;;19.60;99.90;;;;;;4943462;28;20873;-88
2022/07/17 10:42:02;;;;;;;5.53;1.77;;;19.70;99.90;;;;;;4953844;28;20043;-93
2022/07/17 10:44:34;;;;;;;3.92;1.42;;;19.70;99.90;;;;;;4949362;28;20166;-90
2022/07/17 10:47:00;;;;;;;5.25;1.90;;;19.80;99.90;;;;;;4930081;28;20105;-87
2022/07/17 10:49:26;;;;;;;6.50;1.73;;;19.80;99.90;;;;;;4946599;28;20059;-91
2022/07/17 10:51:52;;;;;;;8.38;1.83;;;19.80;99.90;;;;;;4948769;28;20051;-90
2022/07/17 10:54:19;;;;;;;5.65;1.70;;;19.90;99.90;;;;;;4950295;28;20468;-91
2022/07/17 10:56:45;;;;;;;5.28;1.90;;;19.80;99.90;;;;;;4953352;28;20043;-90
2022/07/17 10:59:11;;;;;;;4.30;1.55;;;19.90;99.90;;;;;;4949233;28;20046;-91
2022/07/17 11:01:37;;;;;;;5.15;1.55;;;19.90;99.90;;;;;;4952763;28;20133;-91
2022/07/17 11:04:04;;;;;;;4.82;1.60;;;20.00;99.90;;;;;;4949769;28;20130;-89
2022/07/17 11:06:38;;;;;;;4.82;1.65;;;20.00;99.90;;;;;;4954396;28;20053;-91
2022/07/17 11:09:10;;;;;;;4.18;1.50;;;20.10;99.90;;;;;;4935680;28;20051;-91
2022/07/17 11:11:49;;;;;;;4.53;1.50;;;20.10;99.90;;;;;;4964893;28;20051;-87
2022/07/17 11:14:22;;;;;;;5.53;1.67;;;20.20;99.90;;;;;;4948675;28;20055;-87
2022/07/17 11:16:57;;;;;;;5.32;1.48;;;20.20;99.90;;;;;;4941282;29;20089;-88
2022/07/17 11:19:28;;;;;;;5.22;1.55;;;20.30;99.90;;;;;;4952043;28;20130;-89
2022/07/17 11:21:57;;;;;;;4.50;1.40;;;20.30;99.90;;;;;;4948081;28;20393;-92
2022/07/17 11:24:23;;;;;;;4.05;1.40;;;20.30;99.90;;;;;;4949796;28;20142;-88
2022/07/17 11:26:50;;;;;;;5.03;1.60;;;20.40;99.90;;;;;;4951462;28;20101;-89
2022/07/17 11:29:16;;;;;;;5.95;1.55;;;20.40;99.90;;;;;;4950655;28;20031;-90
2022/07/17 11:31:42;;;;;;;4.10;1.50;;;20.50;99.90;;;;;;4950846;29;20535;-89
2022/07/17 11:34:11;;;;;;;5.65;1.85;;;20.50;99.90;;;;;;4951956;28;20039;-89
2022/07/17 11:36:39;;;;;;;6.15;1.90;;;20.60;99.90;;;;;;4952440;28;20812;-94
2022/07/17 11:39:10;;;;;;;6.20;1.70;;;20.50;99.90;;;;;;4950982;28;20058;-89
2022/07/17 11:41:40;;;;;;;5.20;1.70;;;20.50;99.90;;;;;;4952291;28;20051;-88
2022/07/17 11:44:10;;;;;;;6.20;1.73;;;20.50;99.90;;;;;;4949671;29;20126;-88
2022/07/17 11:46:36;;;;;;;4.80;1.85;;;20.50;99.90;;;;;;4952415;28;20114;-89
2022/07/17 11:49:03;;;;;;;4.85;1.70;;;20.60;99.90;;;;;;4951320;28;20419;-88
2022/07/17 11:51:37;;;;;;;5.18;1.58;;;20.60;99.90;;;;;;4951158;29;20404;-88
2022/07/17 11:54:09;;;;;;;5.05;1.58;;;20.70;99.90;;;;;;4950633;28;20066;-90
2022/07/17 11:56:35;;;;;;;6.75;1.80;;;20.80;99.90;;;;;;4950789;28;20171;-89
2022/07/17 11:59:02;;;;;;;5.57;1.90;;;20.80;99.90;;;;;;4965625;28;20514;-88
2022/07/17 12:01:37;;;;;;;5.72;1.65;;;20.70;99.90;;;;;;4951225;29;20058;-88
2022/07/17 12:04:02;;;;;;;4.25;1.55;;;20.80;99.90;;;;;;4965868;28;20135;-88
2022/07/17 12:06:28;;;;;;;4.68;1.83;;;20.80;99.90;;;;;;4949916;28;20047;-89
2022/07/17 12:08:54;;;;;;;6.65;1.95;;;20.80;99.90;;;;;;4964879;28;20155;-88
2022/07/17 12:11:20;;;;;;;6.07;2.10;;;20.90;99.90;;;;;;4950547;28;20070;-88
2022/07/17 12:13:47;;;;;;;6.22;1.77;;;20.90;99.90;;;;;;4949265;28;20102;-88
2022/07/17 12:16:27;;;;;;;5.18;1.70;;;21.00;99.90;;;;;;4950077;29;20133;-88
2022/07/17 12:19:14;;;;;;;6.05;1.88;;;21.00;99.90;;;;;;4950832;28;20062;-88
2022/07/17 12:22:00;;;;;;;6.18;1.88;;;21.10;99.90;;;;;;4951809;28;20067;-89
2022/07/17 12:24:32;;;;;;;5.38;1.67;;;21.10;99.90;;;;;;4950509;29;20066;-89
2022/07/17 12:27:00;;;;;;;7.22;2.10;;;21.20;99.90;;;;;;4950412;29;20054;-89
2022/07/17 12:29:27;;;;;;;5.47;1.90;;;21.20;99.90;;;;;;4949775;28;20404;-88
2022/07/17 12:32:15;;;;;;;4.65;1.60;;;21.20;99.90;;;;;;4950794;28;20408;-88
2022/07/17 12:34:47;;;;;;;6.18;1.88;;;21.10;99.90;;;;;;4950248;29;20043;-89
2022/07/17 12:37:14;;;;;;;6.13;1.98;;;21.10;99.90;;;;;;4951271;28;20127;-88
2022/07/17 12:39:39;;;;;;;6.65;1.80;;;21.10;99.90;;;;;;4951462;28;20087;-89
2022/07/17 12:42:05;;;;;;;5.80;1.70;;;21.20;99.90;;;;;;4947979;28;20113;-88
2022/07/17 12:44:31;;;;;;;5.15;1.80;;;21.20;99.90;;;;;;4951666;28;20047;-88
2022/07/17 12:46:56;;;;;;;4.82;1.80;;;21.30;99.90;;;;;;4951049;28;20039;-89